Time;durP1;ratioP1;P1;durP2;ratioP2;P2;SDS_P1;SDS_P2;PMS_P1;PMS_P2;Temp;Humidity;BMP_temperature;BMP_pressure;BME280_temperature;BME280_humidity;BME280_pressure;Samples;Min_cycle;Max_cycle;Signal;HPM_P1;HPM_P2
2023/07/03 00:01:47;;;;;;;5.03;3.40;;;;;;;;;;5033580;28;20526;-85
2023/07/03 00:04:16;;;;;;;5.07;2.90;;;;;;;;;;5033375;28;20540;-84
2023/07/03 00:06:45;;;;;;;5.40;3.03;;;;;;;;;;5033279;28;20501;-85
2023/07/03 00:09:13;;;;;;;6.07;3.00;;;;;;;;;;5033637;28;20504;-85
2023/07/03 00:11:40;;;;;;;6.97;3.43;;;;;;;;;;5033649;28;20541;-86
2023/07/03 00:14:08;;;;;;;4.33;2.90;;;;;;;;;;5033560;28;20509;-85
2023/07/03 00:16:35;;;;;;;4.20;3.33;;;;;;;;;;5033409;28;20455;-87
2023/07/03 00:19:03;;;;;;;5.80;3.87;;;;;;;;;;5033538;28;20500;-85
2023/07/03 00:21:32;;;;;;;5.20;4.17;;;;;;;;;;5033178;28;20437;-85
2023/07/03 00:23:59;;;;;;;4.00;3.20;;;;;;;;;;5033202;28;20490;-86
2023/07/03 00:26:26;;;;;;;5.10;3.40;;;;;;;;;;5033427;28;20450;-85
2023/07/03 00:28:54;;;;;;;4.87;3.40;;;;;;;;;;5033247;28;20960;-85
2023/07/03 00:31:21;;;;;;;5.60;3.97;;;;;;;;;;5032980;28;20542;-84
2023/07/03 00:33:48;;;;;;;5.80;4.00;;;;;;;;;;5032652;28;20533;-85
2023/07/03 00:36:17;;;;;;;4.60;2.80;;;;;;;;;;5032617;28;20438;-84
2023/07/03 00:38:46;;;;;;;4.83;3.80;;;;;;;;;;5033091;28;20458;-85
2023/07/03 00:41:13;;;;;;;4.00;2.80;;;;;;;;;;5032999;28;20450;-84
2023/07/03 00:43:41;;;;;;;4.47;2.70;;;;;;;;;;5032783;28;20534;-85
2023/07/03 00:46:08;;;;;;;5.50;3.20;;;;;;;;;;5032359;28;20564;-85
2023/07/03 00:48:36;;;;;;;4.03;2.50;;;;;;;;;;5032293;28;20490;-83
2023/07/03 00:51:06;;;;;;;5.10;3.83;;;;;;;;;;5032915;28;20474;-85
2023/07/03 00:53:33;;;;;;;4.27;3.20;;;;;;;;;;5032113;28;20443;-85
2023/07/03 00:56:02;;;;;;;6.07;3.57;;;;;;;;;;5032638;28;20505;-84
2023/07/03 00:58:29;;;;;;;4.60;3.60;;;;;;;;;;5032504;28;20969;-87
2023/07/03 01:00:58;;;;;;;4.67;3.27;;;;;;;;;;5032554;28;20427;-85
2023/07/03 01:03:32;;;;;;;4.93;2.90;;;;;;;;;;5032320;28;20454;-85
2023/07/03 01:06:01;;;;;;;8.13;3.70;;;;;;;;;;5032547;28;20855;-86
2023/07/03 01:08:28;;;;;;;4.50;3.50;;;;;;;;;;5014417;23;20922;-50
2023/07/03 01:10:55;;;;;;;4.50;3.23;;;;;;;;;;5011249;28;20543;-50
2023/07/03 01:13:25;;;;;;;4.03;3.30;;;;;;;;;;5011345;28;20443;-50
2023/07/03 01:15:52;;;;;;;5.80;3.17;;;;;;;;;;5010836;28;20999;-50
2023/07/03 01:18:20;;;;;;;4.83;2.90;;;;;;;;;;4993095;28;21019;-50
2023/07/03 01:20:50;;;;;;;4.20;3.20;;;;;;;;;;4991433;28;20502;-50
2023/07/03 01:23:21;;;;;;;3.90;3.13;;;;;;;;;;4991516;28;20547;-50
2023/07/03 01:25:51;;;;;;;4.80;3.33;;;;;;;;;;4991371;28;20572;-50
2023/07/03 01:28:20;;;;;;;5.87;3.40;;;;;;;;;;4991180;28;20575;-50
2023/07/03 01:30:48;;;;;;;4.73;2.90;;;;;;;;;;4990702;28;20868;-51
2023/07/03 01:33:17;;;;;;;5.73;4.00;;;;;;;;;;4991109;28;20498;-50
2023/07/03 01:35:45;;;;;;;4.70;3.20;;;;;;;;;;4991354;28;20442;-50
2023/07/03 01:38:12;;;;;;;4.80;2.90;;;;;;;;;;4991125;28;20468;-50
2023/07/03 01:40:40;;;;;;;5.93;3.33;;;;;;;;;;4991392;28;20525;-50
2023/07/03 01:43:09;;;;;;;4.90;2.80;;;;;;;;;;4991380;28;20447;-50
2023/07/03 01:45:41;;;;;;;5.30;3.13;;;;;;;;;;4991204;28;20570;-49
2023/07/03 01:48:09;;;;;;;4.50;3.37;;;;;;;;;;4991174;28;20464;-50
2023/07/03 01:50:37;;;;;;;5.20;3.07;;;;;;;;;;4991148;28;21120;-50
2023/07/03 01:53:06;;;;;;;4.83;3.20;;;;;;;;;;4991411;28;20539;-50
2023/07/03 01:55:39;;;;;;;4.00;3.27;;;;;;;;;;4990770;28;20960;-50
2023/07/03 01:58:08;;;;;;;4.30;3.30;;;;;;;;;;4991008;28;20465;-50
2023/07/03 02:00:40;;;;;;;4.10;3.17;;;;;;;;;;4991216;28;20536;-50
2023/07/03 02:03:11;;;;;;;4.43;3.13;;;;;;;;;;4991217;28;20452;-50
2023/07/03 02:05:39;;;;;;;3.83;2.80;;;;;;;;;;4994534;28;20478;-49
2023/07/03 02:08:08;;;;;;;4.47;3.10;;;;;;;;;;4994504;28;20935;-50
2023/07/03 02:10:36;;;;;;;4.97;3.53;;;;;;;;;;4994698;28;20546;-51
2023/07/03 02:13:03;;;;;;;3.90;3.00;;;;;;;;;;4994731;28;21056;-50
2023/07/03 02:15:30;;;;;;;4.40;3.00;;;;;;;;;;4994774;28;20526;-49
2023/07/03 02:18:01;;;;;;;4.50;3.20;;;;;;;;;;4994392;28;20491;-50
2023/07/03 02:20:29;;;;;;;6.03;3.67;;;;;;;;;;4994738;28;20634;-50
2023/07/03 02:22:57;;;;;;;4.17;2.73;;;;;;;;;;4994751;28;20534;-50
2023/07/03 02:25:24;;;;;;;4.80;2.90;;;;;;;;;;4994555;28;20475;-50
2023/07/03 02:27:51;;;;;;;5.90;2.87;;;;;;;;;;4994444;28;20551;-50
2023/07/03 02:30:19;;;;;;;4.47;3.80;;;;;;;;;;4994380;28;20475;-50
2023/07/03 02:32:46;;;;;;;5.00;3.27;;;;;;;;;;4993718;28;20519;-49
2023/07/03 02:35:15;;;;;;;4.40;3.17;;;;;;;;;;4994427;28;20531;-50
2023/07/03 02:37:42;;;;;;;5.57;3.73;;;;;;;;;;4994319;28;20918;-50
2023/07/03 02:40:10;;;;;;;4.17;3.03;;;;;;;;;;4994508;28;20480;-50
2023/07/03 02:42:37;;;;;;;6.27;4.07;;;;;;;;;;4994075;28;20475;-50
2023/07/03 02:45:05;;;;;;;4.27;3.67;;;;;;;;;;4994269;28;20515;-50
2023/07/03 02:47:34;;;;;;;5.07;3.57;;;;;;;;;;4994049;28;20555;-50
2023/07/03 02:50:01;;;;;;;3.23;2.53;;;;;;;;;;4993936;28;20454;-50
2023/07/03 02:52:30;;;;;;;4.20;2.77;;;;;;;;;;4994217;28;20463;-50
2023/07/03 02:54:57;;;;;;;5.43;3.43;;;;;;;;;;4994127;28;20796;-50
2023/07/03 02:57:25;;;;;;;4.70;3.00;;;;;;;;;;4993696;28;20476;-50
2023/07/03 02:59:52;;;;;;;4.23;3.27;;;;;;;;;;4994114;28;20552;-50
2023/07/03 03:02:20;;;;;;;4.53;2.90;;;;;;;;;;4994136;28;20527;-50
2023/07/03 03:04:47;;;;;;;5.77;3.77;;;;;;;;;;4993934;28;20797;-50
2023/07/03 03:07:15;;;;;;;4.60;3.10;;;;;;;;;;4993515;28;20475;-50
2023/07/03 03:09:43;;;;;;;4.87;3.37;;;;;;;;;;4993800;28;20498;-51
2023/07/03 03:12:11;;;;;;;6.50;3.70;;;;;;;;;;4993739;28;20487;-50
2023/07/03 03:14:38;;;;;;;4.10;3.00;;;;;;;;;;4993666;28;20502;-50
2023/07/03 03:17:05;;;;;;;5.13;3.27;;;;;;;;;;4992983;28;20499;-50
2023/07/03 03:19:33;;;;;;;4.77;3.33;;;;;;;;;;4993657;28;20898;-50
2023/07/03 03:22:00;;;;;;;6.53;4.10;;;;;;;;;;4993405;28;20530;-51
2023/07/03 03:24:27;;;;;;;6.43;3.10;;;;;;;;;;4993363;28;20930;-50
2023/07/03 03:26:56;;;;;;;5.20;2.97;;;;;;;;;;4993155;28;20491;-51
2023/07/03 03:29:23;;;;;;;4.67;3.33;;;;;;;;;;4993099;28;20503;-50
2023/07/03 03:31:51;;;;;;;5.80;3.47;;;;;;;;;;4993582;28;20543;-51
2023/07/03 03:34:18;;;;;;;5.03;3.20;;;;;;;;;;4992697;28;20453;-50
2023/07/03 03:36:45;;;;;;;4.67;2.53;;;;;;;;;;4992979;28;21038;-50
2023/07/03 03:39:12;;;;;;;5.30;3.20;;;;;;;;;;4993782;28;20559;-50
2023/07/03 03:41:40;;;;;;;4.23;3.03;;;;;;;;;;4993108;28;20956;-50
2023/07/03 03:44:08;;;;;;;5.60;4.13;;;;;;;;;;4993034;28;20865;-50
2023/07/03 03:46:36;;;;;;;6.67;3.90;;;;;;;;;;4992551;28;20515;-50
2023/07/03 03:49:03;;;;;;;4.37;3.27;;;;;;;;;;4993026;28;20451;-50
2023/07/03 03:51:30;;;;;;;5.30;3.60;;;;;;;;;;4993334;28;20444;-50
2023/07/03 03:53:57;;;;;;;4.80;3.23;;;;;;;;;;4993296;28;20502;-51
2023/07/03 03:56:25;;;;;;;4.60;2.93;;;;;;;;;;4992663;28;20531;-50
2023/07/03 03:58:52;;;;;;;5.00;3.20;;;;;;;;;;4992805;28;20531;-51
2023/07/03 04:01:20;;;;;;;4.80;3.40;;;;;;;;;;4992719;28;20534;-50
2023/07/03 04:03:48;;;;;;;4.43;3.30;;;;;;;;;;4993024;28;20448;-50
2023/07/03 04:06:16;;;;;;;5.50;3.30;;;;;;;;;;4992380;28;20575;-51
2023/07/03 04:08:43;;;;;;;5.50;3.90;;;;;;;;;;4992997;28;20522;-50
2023/07/03 04:11:11;;;;;;;4.70;3.07;;;;;;;;;;4992639;28;21030;-51
2023/07/03 04:13:38;;;;;;;5.67;3.77;;;;;;;;;;4992459;28;20472;-50
2023/07/03 04:16:05;;;;;;;4.70;3.33;;;;;;;;;;4992627;28;20473;-50
2023/07/03 04:18:34;;;;;;;4.97;3.53;;;;;;;;;;4992530;28;20471;-50
2023/07/03 04:21:01;;;;;;;4.97;3.20;;;;;;;;;;4992489;28;20475;-50
2023/07/03 04:23:29;;;;;;;6.13;3.47;;;;;;;;;;4992470;28;20480;-50
2023/07/03 04:25:56;;;;;;;5.90;3.63;;;;;;;;;;4992150;28;20487;-50
2023/07/03 04:28:24;;;;;;;5.60;2.77;;;;;;;;;;4991010;28;20479;-50
2023/07/03 04:30:51;;;;;;;4.80;3.27;;;;;;;;;;4991777;28;20483;-50
2023/07/03 04:33:19;;;;;;;6.23;3.40;;;;;;;;;;4991771;28;20476;-50
2023/07/03 04:35:48;;;;;;;5.10;3.50;;;;;;;;;;4991940;28;20468;-50
2023/07/03 04:38:17;;;;;;;5.63;4.20;;;;;;;;;;4991687;28;20551;-50
2023/07/03 04:40:45;;;;;;;4.83;3.63;;;;;;;;;;4992308;28;20440;-50
2023/07/03 04:43:15;;;;;;;5.90;3.50;;;;;;;;;;4991897;28;20448;-50
2023/07/03 04:45:44;;;;;;;5.27;3.30;;;;;;;;;;4992267;28;20482;-50
2023/07/03 04:48:12;;;;;;;5.07;3.70;;;;;;;;;;4991615;28;20851;-51
2023/07/03 04:50:39;;;;;;;4.70;3.30;;;;;;;;;;4993432;28;20519;-51
2023/07/03 04:53:07;;;;;;;4.70;3.53;;;;;;;;;;5011193;28;20505;-50
2023/07/03 04:55:36;;;;;;;5.37;4.07;;;;;;;;;;5011395;28;20534;-50
2023/07/03 04:58:04;;;;;;;4.60;3.40;;;;;;;;;;5011037;28;20474;-51
2023/07/03 05:00:32;;;;;;;5.40;3.40;;;;;;;;;;5007664;28;20559;-50
2023/07/03 05:03:00;;;;;;;5.80;3.43;;;;;;;;;;5000647;28;20450;-50
2023/07/03 05:05:27;;;;;;;4.90;3.03;;;;;;;;;;5006152;28;20474;-51
2023/07/03 05:07:55;;;;;;;4.50;2.80;;;;;;;;;;5006409;28;20463;-50
2023/07/03 05:10:24;;;;;;;4.40;3.40;;;;;;;;;;5001616;28;20536;-50
2023/07/03 05:12:51;;;;;;;5.77;3.30;;;;;;;;;;4991474;28;20535;-51
2023/07/03 05:15:20;;;;;;;5.00;2.90;;;;;;;;;;4991393;28;20522;-50
2023/07/03 05:17:50;;;;;;;4.27;3.20;;;;;;;;;;5001562;28;20530;-50
2023/07/03 05:20:18;;;;;;;5.43;3.30;;;;;;;;;;5000770;28;21011;-50
2023/07/03 05:22:46;;;;;;;4.83;3.57;;;;;;;;;;4999372;28;20431;-50
2023/07/03 05:25:14;;;;;;;4.33;3.13;;;;;;;;;;5001236;28;20478;-50
2023/07/03 05:27:43;;;;;;;4.93;3.13;;;;;;;;;;5000567;28;21094;-50
2023/07/03 05:30:11;;;;;;;4.13;3.30;;;;;;;;;;4999986;28;20459;-51
2023/07/03 05:32:38;;;;;;;5.17;3.10;;;;;;;;;;5007058;28;20527;-50
2023/07/03 05:35:06;;;;;;;5.10;3.53;;;;;;;;;;5008699;28;20482;-50
2023/07/03 05:37:34;;;;;;;4.30;3.60;;;;;;;;;;5010200;28;20521;-50
2023/07/03 05:40:01;;;;;;;5.73;3.60;;;;;;;;;;5010230;28;20471;-49
2023/07/03 05:42:28;;;;;;;4.90;3.27;;;;;;;;;;5010607;28;20832;-50
2023/07/03 05:44:57;;;;;;;5.97;3.60;;;;;;;;;;5010429;28;21066;-50
2023/07/03 05:47:24;;;;;;;5.03;3.30;;;;;;;;;;5009704;28;20566;-50
2023/07/03 05:49:52;;;;;;;6.07;3.50;;;;;;;;;;5008857;28;20482;-50
2023/07/03 05:52:19;;;;;;;5.03;3.07;;;;;;;;;;5009583;28;20497;-50
2023/07/03 05:54:47;;;;;;;4.33;3.00;;;;;;;;;;5005103;28;20904;-49
2023/07/03 05:57:15;;;;;;;5.07;3.23;;;;;;;;;;4990509;28;20543;-50
2023/07/03 05:59:42;;;;;;;5.77;3.63;;;;;;;;;;4991071;28;20449;-50
2023/07/03 06:02:12;;;;;;;4.27;2.90;;;;;;;;;;4990894;28;20587;-50
2023/07/03 06:04:39;;;;;;;5.00;3.70;;;;;;;;;;4990924;28;20451;-50
2023/07/03 06:07:08;;;;;;;5.27;3.47;;;;;;;;;;4990247;28;20571;-50
2023/07/03 06:09:35;;;;;;;4.23;3.10;;;;;;;;;;4991217;28;20476;-50
2023/07/03 06:12:03;;;;;;;5.10;3.40;;;;;;;;;;4990904;28;20440;-50
2023/07/03 06:14:31;;;;;;;5.37;3.77;;;;;;;;;;4991145;28;20452;-50
2023/07/03 06:16:59;;;;;;;5.87;3.23;;;;;;;;;;4990471;28;20463;-50
2023/07/03 06:19:28;;;;;;;5.97;3.57;;;;;;;;;;4990666;28;20542;-50
2023/07/03 06:21:56;;;;;;;5.23;3.03;;;;;;;;;;4990833;28;21016;-49
2023/07/03 06:24:23;;;;;;;5.50;3.57;;;;;;;;;;4990734;28;20980;-50
2023/07/03 06:26:51;;;;;;;4.70;3.37;;;;;;;;;;4990169;28;20559;-51
2023/07/03 06:29:18;;;;;;;5.47;3.50;;;;;;;;;;4990573;28;21036;-50
2023/07/03 06:31:47;;;;;;;4.63;3.40;;;;;;;;;;4990626;28;20539;-51
2023/07/03 06:34:14;;;;;;;4.30;3.63;;;;;;;;;;4988918;28;20863;-50
2023/07/03 06:36:43;;;;;;;4.93;3.33;;;;;;;;;;4990691;28;20543;-50
2023/07/03 06:39:11;;;;;;;4.40;2.50;;;;;;;;;;4990692;28;20936;-49
2023/07/03 06:41:38;;;;;;;4.70;3.30;;;;;;;;;;4990743;28;20447;-50
2023/07/03 06:44:06;;;;;;;5.20;3.80;;;;;;;;;;4990619;28;20527;-50
2023/07/03 06:46:33;;;;;;;6.20;3.23;;;;;;;;;;4989910;28;20526;-50
2023/07/03 06:49:00;;;;;;;4.20;3.03;;;;;;;;;;4990678;28;20501;-50
2023/07/03 06:51:28;;;;;;;4.97;3.40;;;;;;;;;;4992015;28;20479;-50
2023/07/03 06:53:56;;;;;;;4.87;3.30;;;;;;;;;;4993583;28;20930;-50
2023/07/03 06:56:24;;;;;;;4.53;2.77;;;;;;;;;;4993791;28;20467;-50
2023/07/03 06:58:51;;;;;;;4.70;3.67;;;;;;;;;;4993963;28;20444;-50
2023/07/03 07:01:20;;;;;;;5.60;3.93;;;;;;;;;;4993803;28;20527;-50
2023/07/03 07:03:47;;;;;;;4.90;3.60;;;;;;;;;;4993815;28;21010;-50
2023/07/03 07:06:15;;;;;;;5.30;3.80;;;;;;;;;;4991608;28;20448;-51
2023/07/03 07:08:42;;;;;;;5.00;3.73;;;;;;;;;;4973830;28;20492;-51
2023/07/03 07:11:12;;;;;;;5.70;3.80;;;;;;;;;;4974128;28;20527;-50
2023/07/03 07:13:40;;;;;;;4.97;3.63;;;;;;;;;;4974266;28;20449;-50
2023/07/03 07:16:11;;;;;;;4.87;3.90;;;;;;;;;;4973585;28;20460;-50
2023/07/03 07:18:39;;;;;;;5.27;4.37;;;;;;;;;;4974126;28;20629;-51
2023/07/03 07:21:06;;;;;;;4.40;2.90;;;;;;;;;;5065178;23;20578;-52
2023/07/03 07:23:33;;;;;;;6.10;4.30;;;;;;;;;;5011477;28;20807;-52
2023/07/03 07:26:00;;;;;;;5.10;4.27;;;;;;;;;;5013090;28;20479;-53
2023/07/03 07:28:29;;;;;;;4.63;3.40;;;;;;;;;;5012778;28;21084;-52
2023/07/03 07:30:56;;;;;;;4.70;3.47;;;;;;;;;;4997591;28;20905;-53
2023/07/03 07:33:24;;;;;;;5.63;3.70;;;;;;;;;;4992817;28;20480;-52
2023/07/03 07:35:51;;;;;;;5.60;3.87;;;;;;;;;;4993145;28;20480;-52
2023/07/03 07:38:18;;;;;;;8.73;4.70;;;;;;;;;;4993067;28;21044;-53
2023/07/03 07:40:46;;;;;;;5.70;4.10;;;;;;;;;;4993660;28;20595;-52
2023/07/03 07:43:14;;;;;;;5.33;3.97;;;;;;;;;;4993213;28;20476;-52
2023/07/03 07:45:42;;;;;;;6.57;4.53;;;;;;;;;;4992928;28;20450;-52
2023/07/03 07:48:10;;;;;;;5.60;4.00;;;;;;;;;;4992930;28;20472;-51
2023/07/03 07:50:37;;;;;;;6.30;3.50;;;;;;;;;;4993141;28;20566;-51
2023/07/03 07:53:04;;;;;;;5.90;3.97;;;;;;;;;;4993054;28;20544;-53
2023/07/03 07:55:32;;;;;;;7.90;4.93;;;;;;;;;;4992572;28;20555;-52
2023/07/03 07:57:59;;;;;;;5.07;3.70;;;;;;;;;;4992771;28;20472;-52
2023/07/03 08:00:26;;;;;;;5.07;3.80;;;;;;;;;;4993022;28;20560;-52
2023/07/03 08:02:55;;;;;;;5.87;3.80;;;;;;;;;;4992663;28;20447;-52
2023/07/03 08:05:22;;;;;;;5.17;3.90;;;;;;;;;;4992515;28;20440;-53
2023/07/03 08:07:49;;;;;;;5.90;4.20;;;;;;;;;;4992234;28;20558;-51
2023/07/03 08:10:17;;;;;;;6.50;4.30;;;;;;;;;;4992264;28;20548;-52
2023/07/03 08:12:44;;;;;;;7.10;4.40;;;;;;;;;;4992574;28;20956;-51
2023/07/03 08:15:12;;;;;;;5.27;4.30;;;;;;;;;;4992453;28;20448;-53
2023/07/03 08:17:39;;;;;;;6.10;4.27;;;;;;;;;;4992267;28;21027;-51
2023/07/03 08:20:11;;;;;;;5.37;3.80;;;;;;;;;;4992273;28;20913;-52
2023/07/03 08:22:39;;;;;;;5.97;5.00;;;;;;;;;;4992165;28;20458;-52
2023/07/03 08:25:06;;;;;;;6.63;5.13;;;;;;;;;;4992176;28;21035;-51
2023/07/03 08:27:33;;;;;;;6.40;4.40;;;;;;;;;;4992090;28;20508;-52
2023/07/03 08:30:01;;;;;;;6.50;4.77;;;;;;;;;;4992296;28;21060;-52
2023/07/03 08:32:28;;;;;;;10.40;5.40;;;;;;;;;;4991932;28;20452;-52
2023/07/03 08:34:56;;;;;;;9.10;4.80;;;;;;;;;;4991913;28;20444;-52
2023/07/03 08:37:24;;;;;;;8.77;5.63;;;;;;;;;;4991797;28;20861;-52
2023/07/03 08:39:51;;;;;;;6.30;5.10;;;;;;;;;;4992177;28;20514;-53
2023/07/03 08:42:23;;;;;;;7.40;5.70;;;;;;;;;;4992455;28;20491;-53
2023/07/03 08:44:50;;;;;;;7.77;5.43;;;;;;;;;;4992363;28;20971;-52
2023/07/03 08:47:21;;;;;;;7.40;5.17;;;;;;;;;;4991809;28;20507;-52
2023/07/03 08:49:48;;;;;;;8.03;5.67;;;;;;;;;;4991968;28;20938;-52
2023/07/03 08:52:19;;;;;;;10.07;6.27;;;;;;;;;;4991770;28;20503;-53
2023/07/03 08:54:49;;;;;;;8.03;5.20;;;;;;;;;;4991779;28;20449;-52
2023/07/03 08:57:16;;;;;;;6.80;4.93;;;;;;;;;;4991420;28;20980;-52
2023/07/03 08:59:43;;;;;;;10.53;7.10;;;;;;;;;;4991540;28;20551;-53
2023/07/03 09:02:15;;;;;;;7.27;5.10;;;;;;;;;;4991826;28;20795;-53
2023/07/03 09:04:52;;;;;;;9.03;6.53;;;;;;;;;;4992163;28;20858;-53
2023/07/03 09:07:23;;;;;;;7.63;5.67;;;;;;;;;;4991255;28;20515;-53
2023/07/03 09:09:55;;;;;;;7.60;5.67;;;;;;;;;;4991574;28;20543;-52
2023/07/03 09:12:24;;;;;;;8.80;6.20;;;;;;;;;;4991955;28;20476;-52
2023/07/03 09:15:07;;;;;;;8.40;6.20;;;;;;;;;;4991157;28;20471;-53
2023/07/03 09:17:35;;;;;;;9.47;6.40;;;;;;;;;;4991476;28;20440;-52
2023/07/03 09:20:05;;;;;;;8.20;6.00;;;;;;;;;;4990949;28;20508;-52
2023/07/03 09:22:34;;;;;;;7.50;6.20;;;;;;;;;;4991556;28;20944;-53
2023/07/03 09:25:06;;;;;;;9.17;6.30;;;;;;;;;;4991126;28;21125;-52
2023/07/03 09:27:34;;;;;;;10.07;5.83;;;;;;;;;;4991219;28;21019;-51
2023/07/03 09:30:05;;;;;;;8.87;6.67;;;;;;;;;;4991385;28;20842;-51
2023/07/03 09:32:33;;;;;;;11.00;6.30;;;;;;;;;;4990940;28;20874;-53
2023/07/03 09:35:02;;;;;;;8.87;6.50;;;;;;;;;;4990585;28;20952;-52
2023/07/03 09:37:29;;;;;;;9.23;6.60;;;;;;;;;;4991216;28;20951;-52
2023/07/03 09:39:56;;;;;;;9.40;7.50;;;;;;;;;;4991137;28;20550;-53
2023/07/03 09:42:25;;;;;;;9.70;7.20;;;;;;;;;;4991051;28;20507;-53
2023/07/03 09:44:53;;;;;;;9.70;6.87;;;;;;;;;;4991046;28;21052;-51
2023/07/03 09:47:21;;;;;;;8.13;6.20;;;;;;;;;;4990794;28;20563;-52
2023/07/03 09:49:49;;;;;;;9.10;7.00;;;;;;;;;;4991428;28;20474;-52
2023/07/03 09:52:16;;;;;;;8.23;6.30;;;;;;;;;;4991087;28;20540;-52
2023/07/03 09:54:44;;;;;;;8.60;7.60;;;;;;;;;;4990803;28;20536;-52
2023/07/03 09:57:19;;;;;;;9.57;6.57;;;;;;;;;;4990755;28;20444;-53
2023/07/03 09:59:48;;;;;;;8.40;6.83;;;;;;;;;;4991099;28;20551;-53
2023/07/03 10:02:17;;;;;;;8.07;7.20;;;;;;;;;;4991195;28;20539;-53
2023/07/03 10:04:45;;;;;;;9.90;7.67;;;;;;;;;;4991183;28;20881;-52
2023/07/03 10:07:15;;;;;;;9.03;7.23;;;;;;;;;;4990669;28;20842;-52
2023/07/03 10:09:43;;;;;;;9.13;7.07;;;;;;;;;;4998432;28;20535;-52
2023/07/03 10:12:16;;;;;;;10.30;7.27;;;;;;;;;;4990789;28;20999;-52
2023/07/03 10:14:48;;;;;;;10.23;7.50;;;;;;;;;;4990970;28;20499;-53
2023/07/03 10:17:19;;;;;;;8.93;6.90;;;;;;;;;;4990560;28;20886;-53
2023/07/03 10:19:49;;;;;;;10.00;6.90;;;;;;;;;;4990170;28;20507;-52
2023/07/03 10:22:16;;;;;;;8.87;6.33;;;;;;;;;;4990314;28;20444;-52
2023/07/03 10:24:44;;;;;;;10.37;7.13;;;;;;;;;;4990781;28;20484;-51
2023/07/03 10:27:13;;;;;;;10.30;7.60;;;;;;;;;;5004440;28;20530;-52
2023/07/03 10:29:42;;;;;;;8.57;6.23;;;;;;;;;;5003096;28;20464;-52
2023/07/03 10:32:13;;;;;;;8.47;6.20;;;;;;;;;;5002815;28;20474;-52
2023/07/03 10:34:46;;;;;;;9.50;6.60;;;;;;;;;;5004550;28;20439;-52
2023/07/03 10:37:15;;;;;;;12.60;7.70;;;;;;;;;;5003897;28;21010;-52
2023/07/03 10:39:44;;;;;;;10.07;7.27;;;;;;;;;;5002667;28;20945;-51
2023/07/03 10:42:14;;;;;;;9.87;7.67;;;;;;;;;;5003254;28;20505;-53
2023/07/03 10:44:42;;;;;;;9.73;6.63;;;;;;;;;;5004913;28;20447;-53
2023/07/03 10:47:13;;;;;;;10.63;7.57;;;;;;;;;;5003705;28;20514;-51
2023/07/03 10:49:42;;;;;;;10.50;6.60;;;;;;;;;;5002434;28;20468;-53
2023/07/03 10:52:14;;;;;;;9.90;7.80;;;;;;;;;;5007281;28;20435;-53
2023/07/03 10:54:44;;;;;;;11.70;6.43;;;;;;;;;;5010882;28;20532;-51
2023/07/03 10:57:16;;;;;;;10.30;7.07;;;;;;;;;;5013644;28;20533;-51
2023/07/03 10:59:45;;;;;;;11.03;7.47;;;;;;;;;;5014061;28;20463;-51
2023/07/03 11:02:18;;;;;;;8.97;7.03;;;;;;;;;;5013650;28;20479;-52
2023/07/03 11:04:51;;;;;;;9.13;7.17;;;;;;;;;;5012784;28;20967;-52
2023/07/03 11:07:21;;;;;;;8.87;6.80;;;;;;;;;;5013354;28;20478;-53
2023/07/03 11:09:53;;;;;;;8.40;6.67;;;;;;;;;;5013474;28;20459;-52
2023/07/03 11:12:25;;;;;;;9.23;6.70;;;;;;;;;;5013543;28;20532;-52
2023/07/03 11:14:58;;;;;;;9.20;6.27;;;;;;;;;;5013601;28;20518;-52
2023/07/03 11:17:30;;;;;;;9.47;7.00;;;;;;;;;;5012456;28;20521;-52
2023/07/03 11:20:02;;;;;;;11.63;6.80;;;;;;;;;;5012951;28;20502;-52
2023/07/03 11:22:31;;;;;;;12.30;8.27;;;;;;;;;;5012888;28;20811;-52
2023/07/03 11:25:03;;;;;;;10.03;6.87;;;;;;;;;;5012698;28;20542;-52
2023/07/03 11:27:34;;;;;;;11.60;7.13;;;;;;;;;;5012461;28;20447;-52
2023/07/03 11:30:02;;;;;;;9.67;6.50;;;;;;;;;;5013050;28;20903;-51
2023/07/03 11:32:33;;;;;;;8.70;6.63;;;;;;;;;;5012378;28;20447;-52
2023/07/03 11:35:02;;;;;;;8.70;7.30;;;;;;;;;;5012373;28;20958;-52
2023/07/03 11:37:34;;;;;;;9.50;7.27;;;;;;;;;;5012328;28;20475;-52
2023/07/03 11:40:21;;;;;;;10.20;6.60;;;;;;;;;;5012632;28;20546;-52
2023/07/03 11:42:48;;;;;;;11.37;7.40;;;;;;;;;;5013002;28;20531;-52
2023/07/03 11:45:26;;;;;;;9.70;6.30;;;;;;;;;;5012734;28;21010;-52
2023/07/03 11:47:54;;;;;;;11.10;7.30;;;;;;;;;;5012507;28;20457;-52
2023/07/03 11:50:30;;;;;;;9.67;6.20;;;;;;;;;;5012542;28;20567;-52
2023/07/03 11:52:58;;;;;;;9.23;6.97;;;;;;;;;;5012967;28;20995;-51
2023/07/03 11:55:37;;;;;;;10.17;6.87;;;;;;;;;;5012595;28;20479;-52
2023/07/03 11:58:04;;;;;;;10.50;7.40;;;;;;;;;;5012443;28;20530;-51
2023/07/03 12:00:32;;;;;;;12.87;6.77;;;;;;;;;;5012390;28;20541;-51
2023/07/03 12:03:00;;;;;;;8.70;6.97;;;;;;;;;;5012586;28;20501;-51
2023/07/03 12:05:46;;;;;;;8.90;6.87;;;;;;;;;;5012286;28;20482;-52
2023/07/03 12:08:35;;;;;;;9.90;6.37;;;;;;;;;;5012352;28;20479;-51
2023/07/03 12:11:03;;;;;;;11.50;6.87;;;;;;;;;;5011553;28;20518;-52
2023/07/03 12:13:46;;;;;;;11.80;6.33;;;;;;;;;;5012356;28;20447;-52
2023/07/03 12:16:17;;;;;;;9.97;6.97;;;;;;;;;;5009407;28;20482;-52
2023/07/03 12:18:45;;;;;;;11.30;7.10;;;;;;;;;;5011649;28;20522;-53
2023/07/03 12:21:13;;;;;;;10.63;6.40;;;;;;;;;;5012127;28;20499;-53
2023/07/03 12:23:42;;;;;;;8.60;7.33;;;;;;;;;;5012299;28;20482;-52
2023/07/03 12:26:10;;;;;;;13.73;7.20;;;;;;;;;;5011098;28;20893;-52
2023/07/03 12:28:37;;;;;;;9.13;6.73;;;;;;;;;;5011991;28;20542;-53
2023/07/03 12:31:15;;;;;;;11.30;6.53;;;;;;;;;;5011732;28;20529;-52
2023/07/03 12:33:49;;;;;;;10.40;6.77;;;;;;;;;;5011206;28;20565;-51
2023/07/03 12:36:21;;;;;;;12.87;7.20;;;;;;;;;;5011506;28;20486;-53
2023/07/03 12:38:50;;;;;;;7.60;6.43;;;;;;;;;;5012180;28;20482;-52
2023/07/03 12:41:22;;;;;;;14.10;8.73;;;;;;;;;;5012011;28;20558;-51
2023/07/03 12:43:50;;;;;;;9.40;6.70;;;;;;;;;;5011503;28;20531;-53
2023/07/03 12:46:26;;;;;;;9.10;7.03;;;;;;;;;;5011033;28;20443;-53
2023/07/03 12:49:02;;;;;;;11.60;7.20;;;;;;;;;;5011125;28;20574;-53
2023/07/03 12:51:29;;;;;;;10.40;7.00;;;;;;;;;;5011695;28;20438;-51
2023/07/03 12:53:58;;;;;;;10.67;7.20;;;;;;;;;;5011740;28;20498;-52
2023/07/03 12:56:29;;;;;;;9.83;7.13;;;;;;;;;;5011409;28;20447;-53
2023/07/03 12:58:57;;;;;;;7.67;6.60;;;;;;;;;;5011745;28;20447;-52
2023/07/03 13:01:26;;;;;;;9.87;6.70;;;;;;;;;;5011537;28;20882;-53
2023/07/03 13:03:54;;;;;;;10.90;7.70;;;;;;;;;;5011494;28;20447;-52
2023/07/03 13:06:23;;;;;;;10.30;6.50;;;;;;;;;;5011039;28;20474;-53
2023/07/03 13:08:51;;;;;;;10.77;5.77;;;;;;;;;;5011342;28;20490;-52
2023/07/03 13:11:31;;;;;;;12.50;7.17;;;;;;;;;;5010507;28;20462;-53
2023/07/03 13:14:07;;;;;;;10.43;7.10;;;;;;;;;;5011290;28;20489;-54
2023/07/03 13:16:34;;;;;;;10.30;6.77;;;;;;;;;;5009784;28;20522;-54
2023/07/03 13:19:02;;;;;;;9.20;6.60;;;;;;;;;;5010896;28;20530;-53
2023/07/03 13:21:29;;;;;;;9.77;7.17;;;;;;;;;;5017580;23;20500;-53
2023/07/03 13:24:05;;;;;;;10.07;6.10;;;;;;;;;;5010971;28;20999;-52
2023/07/03 13:26:34;;;;;;;8.93;6.73;;;;;;;;;;5009986;28;20533;-54
2023/07/03 13:29:03;;;;;;;14.80;5.67;;;;;;;;;;5011196;28;20566;-52
2023/07/03 13:31:31;;;;;;;9.50;6.63;;;;;;;;;;4994051;28;20464;-53
2023/07/03 13:34:04;;;;;;;11.07;7.10;;;;;;;;;;4990125;28;20447;-53
2023/07/03 13:36:33;;;;;;;9.93;7.47;;;;;;;;;;4990854;28;20999;-52
2023/07/03 13:39:04;;;;;;;9.77;7.67;;;;;;;;;;4991463;28;20471;-53
2023/07/03 13:41:32;;;;;;;9.07;7.20;;;;;;;;;;4991205;28;20464;-53
2023/07/03 13:44:00;;;;;;;12.90;7.00;;;;;;;;;;4991120;28;20829;-53
2023/07/03 13:46:28;;;;;;;10.53;6.43;;;;;;;;;;4990827;28;20480;-52
2023/07/03 13:48:55;;;;;;;9.80;6.60;;;;;;;;;;4991201;28;20571;-54
2023/07/03 13:51:23;;;;;;;7.77;5.77;;;;;;;;;;4991167;28;20556;-53
2023/07/03 13:53:50;;;;;;;8.27;6.10;;;;;;;;;;4991272;28;20639;-54
2023/07/03 13:56:18;;;;;;;13.23;7.50;;;;;;;;;;4990729;28;20448;-55
2023/07/03 13:58:45;;;;;;;8.90;7.07;;;;;;;;;;4990857;28;20534;-53
2023/07/03 14:01:14;;;;;;;9.07;6.07;;;;;;;;;;4994161;28;20464;-52
2023/07/03 14:03:41;;;;;;;9.63;7.00;;;;;;;;;;4995177;28;20448;-52
2023/07/03 14:06:10;;;;;;;10.93;7.30;;;;;;;;;;4994957;28;20448;-53
2023/07/03 14:08:37;;;;;;;9.13;6.67;;;;;;;;;;4994806;28;20531;-53
2023/07/03 14:11:05;;;;;;;9.07;6.50;;;;;;;;;;4994376;28;20538;-53
2023/07/03 14:13:32;;;;;;;9.47;5.83;;;;;;;;;;4994930;28;20440;-52
2023/07/03 14:15:59;;;;;;;12.70;7.13;;;;;;;;;;4994617;28;21019;-53
2023/07/03 14:18:28;;;;;;;10.20;6.30;;;;;;;;;;4994120;28;20967;-53
2023/07/03 14:20:55;;;;;;;10.77;7.80;;;;;;;;;;4994639;28;21017;-53
2023/07/03 14:23:22;;;;;;;10.80;6.90;;;;;;;;;;4994953;28;21002;-53
2023/07/03 14:25:50;;;;;;;10.43;6.53;;;;;;;;;;4993882;28;20527;-52
2023/07/03 14:28:17;;;;;;;9.30;6.13;;;;;;;;;;4994658;28;20483;-53
2023/07/03 14:30:44;;;;;;;10.53;6.33;;;;;;;;;;4994460;28;20520;-51
2023/07/03 14:33:11;;;;;;;10.47;7.13;;;;;;;;;;4994210;28;20535;-49
2023/07/03 14:35:40;;;;;;;10.63;7.60;;;;;;;;;;4993938;28;20479;-51
2023/07/03 14:38:07;;;;;;;8.77;6.20;;;;;;;;;;4994793;28;20810;-49
2023/07/03 14:40:35;;;;;;;9.37;6.37;;;;;;;;;;4994578;28;20587;-49
2023/07/03 14:43:03;;;;;;;10.40;6.63;;;;;;;;;;4994359;28;20506;-49
2023/07/03 14:45:30;;;;;;;12.50;7.40;;;;;;;;;;4994382;28;20534;-49
2023/07/03 14:47:57;;;;;;;11.23;7.57;;;;;;;;;;4994300;28;20580;-49
2023/07/03 14:50:24;;;;;;;12.30;6.17;;;;;;;;;;4994308;28;20575;-49